createdAt,value
2023-02-13T00:01:19.126Z,33.25
2023-02-13T00:03:20.778Z,35.58
2023-02-13T00:05:22.397Z,34.13
2023-02-13T00:07:23.976Z,33.80
2023-02-13T00:09:25.636Z,34.30
2023-02-13T00:11:27.293Z,34.63
2023-02-13T00:13:28.952Z,32.30
2023-02-13T00:15:30.612Z,34.80
2023-02-13T00:17:32.667Z,33.63
2023-02-13T00:19:34.201Z,34.50
2023-02-13T00:21:35.859Z,32.90
2023-02-13T00:23:38.535Z,34.35
2023-02-13T00:25:40.152Z,31.75
2023-02-13T00:27:41.747Z,33.95
2023-02-13T00:29:43.508Z,32.38
2023-02-13T00:31:45.267Z,34.13
2023-02-13T00:33:47.300Z,32.75
2023-02-13T00:35:48.915Z,32.45
2023-02-13T00:37:50.584Z,32.35
2023-02-13T00:39:52.518Z,33.05
2023-02-13T00:41:54.209Z,34.85
2023-02-13T00:43:55.834Z,33.58
2023-02-13T00:45:58.998Z,32.22
2023-02-13T00:48:00.656Z,32.35
2023-02-13T00:50:02.275Z,33.67
2023-02-13T00:52:04.068Z,31.08
2023-02-13T00:54:05.794Z,32.28
2023-02-13T00:56:07.739Z,31.35
2023-02-13T00:58:09.378Z,33.53
2023-02-13T01:00:11.605Z,33.92
2023-02-13T01:02:13.316Z,34.53
2023-02-13T01:04:14.946Z,33.28
2023-02-13T01:06:16.615Z,31.85
2023-02-13T01:08:20.198Z,33.40
2023-02-13T01:10:21.827Z,33.85
2023-02-13T01:12:23.665Z,33.83
2023-02-13T01:14:25.299Z,31.95
2023-02-13T01:16:26.905Z,33.10
2023-02-13T01:18:28.660Z,33.67
2023-02-13T01:20:30.741Z,32.58
2023-02-13T01:22:32.312Z,33.30
2023-02-13T01:24:34.268Z,32.50
2023-02-13T01:26:36.095Z,36.45
2023-02-13T01:28:37.858Z,35.67
2023-02-13T01:30:39.591Z,35.40
2023-02-13T01:32:42.178Z,33.90
2023-02-13T01:34:43.775Z,33.10
2023-02-13T01:36:45.323Z,33.63
2023-02-13T01:38:46.965Z,34.25
2023-02-13T01:40:50.370Z,33.92
2023-02-13T01:42:52.086Z,35.22
2023-02-13T01:45:02.705Z,35.85
2023-02-13T01:47:04.337Z,34.17
2023-02-13T01:49:19.290Z,34.58
2023-02-13T01:51:25.517Z,36.08
2023-02-13T01:53:53.742Z,34.30
2023-02-13T01:56:02.410Z,33.95
2023-02-13T01:58:10.311Z,34.95
2023-02-13T02:00:17.012Z,33.90
2023-02-13T02:02:19.817Z,34.42
2023-02-13T02:04:36.148Z,34.00
2023-02-13T02:06:42.113Z,33.78
2023-02-13T02:08:44.182Z,35.60
2023-02-13T02:10:45.943Z,34.80
2023-02-13T02:13:18.738Z,36.08
2023-02-13T02:15:21.411Z,35.85
2023-02-13T02:17:25.106Z,34.22
2023-02-13T02:19:49.685Z,34.60
2023-02-13T02:22:03.216Z,37.50
2023-02-13T02:24:13.626Z,35.15
2023-02-13T02:26:53.128Z,34.58
2023-02-13T02:29:24.218Z,36.17
2023-02-13T02:32:03.756Z,36.13
2023-02-13T02:34:23.824Z,35.60
2023-02-13T02:36:37.215Z,33.67
2023-02-13T02:39:05.240Z,36.90
2023-02-13T02:41:42.338Z,35.92
2023-02-13T02:43:55.308Z,34.08
2023-02-13T02:46:32.594Z,34.65
2023-02-13T02:49:14.652Z,34.55
2023-02-13T02:51:23.897Z,34.25
2023-02-13T02:53:40.376Z,35.92
2023-02-13T02:55:50.789Z,32.97
2023-02-13T02:58:23.868Z,33.85
2023-02-13T03:00:45.087Z,33.22
2023-02-13T03:03:25.222Z,34.60
2023-02-13T03:05:49.856Z,33.67
2023-02-13T03:07:51.483Z,34.45
2023-02-13T03:10:15.866Z,33.25
2023-02-13T03:12:40.380Z,36.47
2023-02-13T03:14:42.746Z,35.70
2023-02-13T03:17:03.132Z,33.67
2023-02-13T03:19:23.887Z,34.92
2023-02-13T03:22:06.830Z,34.83
2023-02-13T03:24:21.974Z,34.35
2023-02-13T03:26:50.283Z,32.67
2023-02-13T03:29:30.072Z,31.10
2023-02-13T03:31:39.265Z,32.65
2023-02-13T03:34:06.590Z,33.00
2023-02-13T03:36:49.550Z,33.03
2023-02-13T03:39:34.032Z,33.03
2023-02-13T03:41:53.003Z,33.90
2023-02-13T03:44:00.490Z,31.67
2023-02-13T03:46:02.612Z,32.60
2023-02-13T03:48:32.251Z,33.75
2023-02-13T03:50:33.867Z,33.53
2023-02-13T03:52:45.118Z,31.45
2023-02-13T03:55:10.573Z,33.92
2023-02-13T03:57:34.131Z,32.40
2023-02-13T03:59:37.119Z,32.90
2023-02-13T04:01:39.417Z,33.37
2023-02-13T04:03:57.714Z,32.60
2023-02-13T04:06:13.215Z,31.08
2023-02-13T04:08:15.090Z,33.40
2023-02-13T04:10:18.188Z,31.58
2023-02-13T04:12:21.769Z,33.40
2023-02-13T04:14:44.310Z,35.25
2023-02-13T04:16:50.227Z,32.38
2023-02-13T04:18:52.466Z,33.13
2023-02-13T04:20:54.167Z,32.00
2023-02-13T04:22:55.882Z,31.65
2023-02-13T04:24:57.482Z,34.17
2023-02-13T04:26:59.399Z,31.48
2023-02-13T04:29:01.165Z,33.45
2023-02-13T04:31:02.857Z,31.73
2023-02-13T04:33:04.694Z,32.83
2023-02-13T04:35:06.591Z,32.10
2023-02-13T04:37:08.587Z,33.15
2023-02-13T04:39:11.529Z,32.42
2023-02-13T04:41:13.181Z,32.00
2023-02-13T04:43:14.830Z,33.97
2023-02-13T04:45:16.960Z,32.22
2023-02-13T04:47:18.615Z,32.53
2023-02-13T04:49:20.273Z,30.95
2023-02-13T04:51:21.982Z,33.30
2023-02-13T04:53:23.715Z,31.23
2023-02-13T04:55:26.879Z,31.17
2023-02-13T04:57:28.508Z,32.75
2023-02-13T04:59:30.125Z,31.15
2023-02-13T05:01:31.833Z,34.65
2023-02-13T05:03:33.483Z,32.53
2023-02-13T05:05:35.873Z,33.03
2023-02-13T05:07:37.524Z,32.38
2023-02-13T05:09:41.411Z,35.70
2023-02-13T05:11:43.355Z,40.47
2023-02-13T05:13:45.035Z,40.80
2023-02-13T05:15:48.242Z,51.38
2023-02-13T05:17:50.306Z,51.28
2023-02-13T05:19:51.871Z,49.80
2023-02-13T05:22:11.759Z,45.70
2023-02-13T05:24:13.412Z,47.90
2023-02-13T05:26:15.105Z,46.28
2023-02-13T05:28:35.684Z,45.95
2023-02-13T05:30:39.341Z,43.63
2023-02-13T05:32:43.290Z,42.92
2023-02-13T05:36:46.795Z,40.63
2023-02-13T05:38:48.418Z,41.25
2023-02-13T05:40:50.017Z,43.08
2023-02-13T05:42:54.193Z,41.08
2023-02-13T05:44:55.741Z,40.88
2023-02-13T05:46:57.425Z,42.60
2023-02-13T05:48:59.092Z,40.22
2023-02-13T05:51:00.898Z,42.05
2023-02-13T05:53:02.490Z,41.35
2023-02-13T05:55:04.542Z,37.78
2023-02-13T05:57:06.108Z,36.35
2023-02-13T05:59:07.694Z,37.08
2023-02-13T06:01:09.308Z,34.10
2023-02-13T06:03:10.946Z,36.78
2023-02-13T06:05:12.595Z,35.63
2023-02-13T06:07:14.230Z,39.90
2023-02-13T06:09:15.858Z,39.35
2023-02-13T06:11:17.726Z,37.92
2023-02-13T06:13:19.394Z,38.65
2023-02-13T06:15:20.968Z,36.80
2023-02-13T06:17:22.624Z,38.58
2023-02-13T06:19:24.281Z,39.10
2023-02-13T06:21:25.990Z,39.05
2023-02-13T06:23:27.877Z,36.60
2023-02-13T06:25:29.580Z,40.80
2023-02-13T06:27:31.362Z,38.80
2023-02-13T06:29:33.152Z,37.40
2023-02-13T06:31:35.089Z,35.90
2023-02-13T06:33:36.754Z,43.20
2023-02-13T06:35:38.336Z,40.72
2023-02-13T06:37:40.140Z,41.45
2023-02-13T06:39:42.862Z,40.67
2023-02-13T06:41:44.497Z,39.72
2023-02-13T06:43:46.343Z,38.40
2023-02-13T06:45:48.052Z,41.15
2023-02-13T06:47:50.269Z,39.50
2023-02-13T06:49:51.952Z,40.25
2023-02-13T06:51:53.611Z,42.15
2023-02-13T06:53:55.219Z,42.60
2023-02-13T06:55:57.718Z,42.08
2023-02-13T06:57:59.347Z,43.55
2023-02-13T07:00:04.584Z,40.88
2023-02-13T07:02:06.281Z,42.72
2023-02-13T07:04:07.948Z,39.33
2023-02-13T07:06:09.633Z,42.53
2023-02-13T07:08:12.565Z,37.05
2023-02-13T07:10:14.904Z,38.25
2023-02-13T07:12:16.482Z,33.20
2023-02-13T07:14:18.146Z,35.28
2023-02-13T07:16:19.760Z,34.60
2023-02-13T07:18:21.405Z,29.60
2023-02-13T07:20:23.468Z,33.05
2023-02-13T07:22:25.180Z,33.42
2023-02-13T07:24:26.805Z,32.05
2023-02-13T07:26:28.486Z,31.75
2023-02-13T07:28:30.581Z,42.33
2023-02-13T07:30:33.459Z,42.05
2023-02-13T07:32:35.172Z,43.70
2023-02-13T07:34:36.745Z,43.30
2023-02-13T07:36:38.301Z,45.05
2023-02-13T07:38:39.950Z,43.05
2023-02-13T07:40:41.701Z,34.50
2023-02-13T07:42:43.283Z,42.97
2023-02-13T07:44:44.877Z,37.63
2023-02-13T07:46:46.579Z,34.40
2023-02-13T07:48:48.300Z,37.47
2023-02-13T07:50:50.341Z,35.33
2023-02-13T07:52:55.580Z,30.83
2023-02-13T07:54:57.174Z,32.80
2023-02-13T07:56:59.541Z,35.58
2023-02-13T07:59:01.217Z,30.67
2023-02-13T08:01:07.718Z,29.38
2023-02-13T08:03:09.757Z,29.90
2023-02-13T08:05:11.368Z,32.33
2023-02-13T08:07:14.320Z,31.70
2023-02-13T08:09:40.770Z,33.27
2023-02-13T08:11:54.785Z,29.50
2023-02-13T08:13:56.389Z,29.52
2023-02-13T08:15:58.499Z,29.83
2023-02-13T08:18:00.380Z,29.95
2023-02-13T08:20:02.068Z,30.35
2023-02-13T08:22:04.051Z,29.13
2023-02-13T08:24:05.861Z,30.92
2023-02-13T08:26:07.553Z,31.20
2023-02-13T08:28:09.317Z,30.40
2023-02-13T08:30:11.570Z,32.83
2023-02-13T08:32:13.331Z,32.88
2023-02-13T08:34:15.012Z,33.28
2023-02-13T08:36:16.727Z,33.17
2023-02-13T08:38:18.418Z,33.80
2023-02-13T08:40:20.226Z,35.10
2023-02-13T08:42:21.800Z,39.85
2023-02-13T08:44:23.356Z,38.05
2023-02-13T08:46:25.138Z,36.78
2023-02-13T08:48:27.458Z,39.13
2023-02-13T08:50:29.084Z,35.58
2023-02-13T08:52:30.793Z,34.33
2023-02-13T08:54:35.404Z,34.92
2023-02-13T08:56:36.989Z,33.35
2023-02-13T08:58:38.749Z,34.25
2023-02-13T09:00:40.324Z,35.08
2023-02-13T09:02:41.908Z,38.13
2023-02-13T09:04:43.602Z,34.35
2023-02-13T09:06:45.439Z,34.25
2023-02-13T09:08:47.052Z,34.92
2023-02-13T09:10:56.715Z,36.67
2023-02-13T09:12:58.572Z,35.58
2023-02-13T09:15:00.169Z,37.47
2023-02-13T09:17:03.286Z,36.97
2023-02-13T09:19:05.208Z,35.58
2023-02-13T09:21:09.525Z,35.65
2023-02-13T09:23:11.183Z,35.08
2023-02-13T09:25:12.767Z,37.92
2023-02-13T09:27:14.387Z,33.95
2023-02-13T09:29:15.953Z,33.58
2023-02-13T09:31:20.393Z,34.72
2023-02-13T09:33:22.180Z,34.55
2023-02-13T09:35:24.365Z,32.95
2023-02-13T09:37:27.114Z,31.67
2023-02-13T09:39:29.154Z,32.65
2023-02-13T09:41:42.172Z,36.33
2023-02-13T09:43:54.907Z,34.72
2023-02-13T09:46:01.554Z,37.10
2023-02-13T09:48:04.973Z,35.03
2023-02-13T09:50:17.122Z,35.33
2023-02-13T09:52:18.941Z,33.47
2023-02-13T09:54:20.730Z,35.90
2023-02-13T09:56:40.482Z,34.22
2023-02-13T09:58:46.334Z,32.28
2023-02-13T10:00:58.046Z,35.35
2023-02-13T10:02:59.650Z,32.03
2023-02-13T10:05:17.215Z,33.92
2023-02-13T10:07:39.870Z,33.13
2023-02-13T10:10:02.339Z,33.13
2023-02-13T10:12:23.050Z,33.60
2023-02-13T10:14:32.766Z,30.25
2023-02-13T10:16:53.312Z,31.60
2023-02-13T10:18:59.925Z,32.53
2023-02-13T10:21:03.051Z,31.80
2023-02-13T10:23:29.439Z,30.42
2023-02-13T10:25:42.764Z,28.42
2023-02-13T10:27:50.128Z,27.95
2023-02-13T10:30:05.721Z,28.95
2023-02-13T10:32:13.831Z,27.40
2023-02-13T10:34:17.288Z,28.08
2023-02-13T10:36:31.713Z,29.35
2023-02-13T10:40:40.766Z,30.35
2023-02-13T10:42:42.349Z,31.48
2023-02-13T10:44:55.450Z,28.65
2023-02-13T10:46:59.638Z,28.38
2023-02-13T10:49:10.992Z,29.25
2023-02-13T10:51:30.730Z,29.83
2023-02-13T10:53:47.573Z,28.38
2023-02-13T10:55:55.429Z,26.23
2023-02-13T10:58:28.120Z,28.85
2023-02-13T11:00:43.170Z,28.38
2023-02-13T11:02:45.064Z,28.10
2023-02-13T11:04:46.964Z,27.75
2023-02-13T11:06:59.555Z,24.63
2023-02-13T11:09:01.174Z,27.02
2023-02-13T11:11:02.799Z,25.20
2023-02-13T11:13:22.232Z,25.65
2023-02-13T11:15:28.009Z,22.88
2023-02-13T11:17:36.443Z,21.70
2023-02-13T11:19:40.739Z,24.15
2023-02-13T11:21:42.430Z,22.85
2023-02-13T11:23:53.803Z,24.90
2023-02-13T11:26:00.871Z,22.73
2023-02-13T11:28:11.530Z,23.30
2023-02-13T11:30:46.730Z,22.33
2023-02-13T11:32:59.473Z,21.40
2023-02-13T11:35:27.026Z,22.90
2023-02-13T11:37:30.332Z,18.77
2023-02-13T11:39:31.910Z,20.73
2023-02-13T11:41:44.036Z,19.95
2023-02-13T11:43:51.868Z,20.42
2023-02-13T11:46:09.450Z,21.10
2023-02-13T11:48:21.896Z,19.67
2023-02-13T11:50:32.365Z,17.65
2023-02-13T11:52:35.689Z,20.45
2023-02-13T11:54:41.182Z,20.10
2023-02-13T11:57:04.041Z,20.73
2023-02-13T11:59:13.260Z,21.47
2023-02-13T12:01:20.963Z,19.02
2023-02-13T12:03:22.664Z,17.05
2023-02-13T12:05:26.993Z,17.08
2023-02-13T12:07:30.657Z,14.65
2023-02-13T12:09:32.498Z,16.50
2023-02-13T12:11:46.035Z,16.40
2023-02-13T12:13:48.309Z,16.27
2023-02-13T12:15:58.072Z,15.85
2023-02-13T12:18:09.010Z,16.40
2023-02-13T12:20:15.704Z,16.67
2023-02-13T12:22:28.944Z,17.67
2023-02-13T12:24:41.618Z,16.77
2023-02-13T12:26:46.774Z,16.27
2023-02-13T12:29:09.016Z,16.27
2023-02-13T12:31:19.819Z,15.45
2023-02-13T12:33:36.235Z,16.23
2023-02-13T12:35:50.220Z,16.42
2023-02-13T12:38:05.168Z,15.45
2023-02-13T12:40:30.644Z,15.32
2023-02-13T12:42:41.400Z,14.88
2023-02-13T12:45:03.456Z,15.30
2023-02-13T12:47:17.239Z,14.85
2023-02-13T12:49:44.229Z,14.48
2023-02-13T12:51:51.671Z,14.93
2023-02-13T12:54:02.762Z,14.40
2023-02-13T12:56:19.222Z,14.32
2023-02-13T12:59:07.706Z,15.43
2023-02-13T13:01:27.940Z,15.18
2023-02-13T13:03:48.010Z,14.55
2023-02-13T13:06:12.363Z,13.23
2023-02-13T13:08:29.145Z,14.00
2023-02-13T13:10:36.557Z,15.40
2023-02-13T13:13:02.958Z,14.63
2023-02-13T13:15:17.329Z,13.35
2023-02-13T13:17:43.065Z,14.18
2023-02-13T13:19:45.120Z,14.30
2023-02-13T13:22:11.177Z,15.38
2023-02-13T13:24:29.665Z,14.43
2023-02-13T13:26:37.436Z,18.67
2023-02-13T13:28:42.162Z,15.25
2023-02-13T13:30:44.188Z,14.52
2023-02-13T13:32:46.478Z,14.00
2023-02-13T13:34:48.296Z,14.98
2023-02-13T13:37:11.978Z,13.95
2023-02-13T13:39:31.841Z,13.38
2023-02-13T13:42:11.224Z,13.73
2023-02-13T13:44:26.357Z,13.27
2023-02-13T13:46:46.831Z,14.02
2023-02-13T13:49:15.390Z,13.43
2023-02-13T13:51:18.043Z,16.27
2023-02-13T13:53:23.384Z,14.30
2023-02-13T13:55:47.913Z,14.05
2023-02-13T13:58:00.120Z,13.02
2023-02-13T14:00:26.739Z,13.73
2023-02-13T14:02:38.870Z,14.25
2023-02-13T14:04:43.768Z,17.40
2023-02-13T14:06:45.523Z,16.13
2023-02-13T14:08:54.324Z,13.82
2023-02-13T14:11:02.103Z,13.95
2023-02-13T14:13:04.235Z,14.63
2023-02-13T14:15:06.175Z,14.60
2023-02-13T14:17:14.155Z,14.07
2023-02-13T14:19:33.650Z,16.88
2023-02-13T14:21:35.455Z,16.73
2023-02-13T14:23:42.936Z,17.83
2023-02-13T14:25:45.517Z,14.90
2023-02-13T14:28:02.261Z,15.00
2023-02-13T14:30:05.774Z,16.83
2023-02-13T14:32:16.411Z,15.57
2023-02-13T14:34:23.140Z,15.20
2023-02-13T14:36:32.301Z,14.07
2023-02-13T14:38:34.375Z,14.50
2023-02-13T14:40:48.004Z,15.13
2023-02-13T14:43:00.138Z,14.38
2023-02-13T14:45:04.971Z,14.45
2023-02-13T14:47:32.081Z,15.55
2023-02-13T14:49:36.968Z,16.10
2023-02-13T14:51:46.775Z,16.13
2023-02-13T14:53:53.106Z,16.02
2023-02-13T14:56:15.191Z,14.80
2023-02-13T14:58:24.311Z,14.18
2023-02-13T15:00:30.653Z,15.02
2023-02-13T15:02:36.022Z,14.23
2023-02-13T15:04:37.540Z,13.70
2023-02-13T15:06:42.472Z,14.23
2023-02-13T15:08:50.740Z,12.75
2023-02-13T15:10:54.390Z,13.38
2023-02-13T15:13:01.238Z,15.35
2023-02-13T15:15:22.193Z,16.55
2023-02-13T15:17:29.987Z,16.13
2023-02-13T15:19:32.852Z,16.27
2023-02-13T15:21:34.515Z,15.48
2023-02-13T15:23:36.272Z,15.38
2023-02-13T15:25:39.888Z,17.20
2023-02-13T15:27:43.548Z,18.63
2023-02-13T15:30:04.408Z,19.95
2023-02-13T15:32:18.439Z,19.58
2023-02-13T15:34:32.353Z,19.60
2023-02-13T15:36:39.763Z,20.17
2023-02-13T15:38:41.434Z,24.30
2023-02-13T15:40:44.021Z,25.58
2023-02-13T15:42:46.674Z,30.48
2023-02-13T15:44:51.294Z,27.05
2023-02-13T15:46:54.502Z,26.08
2023-02-13T15:48:58.948Z,24.35
2023-02-13T15:51:00.968Z,26.65
2023-02-13T15:53:05.191Z,29.70
2023-02-13T15:55:06.976Z,27.02
2023-02-13T15:57:11.454Z,26.02
2023-02-13T15:59:14.099Z,20.80
2023-02-13T16:01:17.043Z,23.65
2023-02-13T16:03:18.997Z,24.52
2023-02-13T16:05:37.508Z,19.30
2023-02-13T16:07:58.538Z,19.73
2023-02-13T16:10:29.400Z,17.50
2023-02-13T16:12:31.012Z,18.38
2023-02-13T16:14:36.817Z,16.73
2023-02-13T16:17:05.450Z,17.77
2023-02-13T16:19:07.067Z,17.38
2023-02-13T16:21:09.308Z,17.40
2023-02-13T16:23:17.267Z,17.38
2023-02-13T16:25:34.490Z,18.52
2023-02-13T16:27:36.598Z,17.08
2023-02-13T16:29:38.208Z,17.40
2023-02-13T16:31:40.719Z,15.90
2023-02-13T16:33:43.065Z,16.27
2023-02-13T16:35:55.384Z,16.00
2023-02-13T16:38:02.403Z,16.45
2023-02-13T16:40:32.321Z,17.13
2023-02-13T16:42:33.886Z,17.17
2023-02-13T16:44:35.523Z,18.15
2023-02-13T16:46:39.718Z,17.27
2023-02-13T16:48:56.556Z,18.35
2023-02-13T16:50:58.440Z,18.15
2023-02-13T16:53:02.613Z,16.27
2023-02-13T16:55:05.165Z,18.05
2023-02-13T16:57:33.750Z,18.35
2023-02-13T16:59:47.581Z,16.95
2023-02-13T17:02:02.241Z,19.05
2023-02-13T17:04:15.658Z,18.67
2023-02-13T17:06:17.249Z,19.50
2023-02-13T17:08:18.857Z,18.80
2023-02-13T17:10:20.532Z,18.58
2023-02-13T17:12:22.349Z,20.70
2023-02-13T17:14:23.999Z,19.45
2023-02-13T17:16:25.748Z,19.48
2023-02-13T17:18:27.792Z,19.65
2023-02-13T17:20:32.252Z,19.80
2023-02-13T17:22:39.540Z,19.42
2023-02-13T17:24:41.265Z,18.10
2023-02-13T17:26:42.958Z,19.48
2023-02-13T17:28:44.495Z,18.52
2023-02-13T17:30:47.062Z,19.17
2023-02-13T17:32:49.403Z,18.48
2023-02-13T17:34:51.151Z,18.45
2023-02-13T17:36:52.741Z,19.45
2023-02-13T17:38:54.353Z,20.02
2023-02-13T17:40:56.295Z,18.63
2023-02-13T17:42:59.232Z,18.52
2023-02-13T17:45:00.934Z,18.55
2023-02-13T17:47:02.738Z,18.98
2023-02-13T17:49:04.596Z,18.63
2023-02-13T17:51:06.333Z,18.25
2023-02-13T17:53:22.413Z,20.08
2023-02-13T17:55:26.134Z,18.60
2023-02-13T17:57:27.767Z,18.65
2023-02-13T17:59:29.329Z,18.42
2023-02-13T18:01:30.954Z,18.65
2023-02-13T18:03:32.555Z,17.90
2023-02-13T18:05:34.236Z,17.67
2023-02-13T18:07:36.231Z,18.08
2023-02-13T18:09:38.003Z,17.98
2023-02-13T18:11:39.578Z,17.98
2023-02-13T18:13:47.966Z,17.42
2023-02-13T18:15:49.595Z,19.02
2023-02-13T18:17:51.388Z,17.00
2023-02-13T18:19:53.140Z,17.55
2023-02-13T18:21:54.714Z,18.52
2023-02-13T18:23:56.577Z,16.92
2023-02-13T18:26:05.943Z,17.05
2023-02-13T18:28:07.554Z,19.45
2023-02-13T18:30:11.153Z,18.00
2023-02-13T18:32:12.982Z,19.73
2023-02-13T18:34:33.430Z,17.63
2023-02-13T18:36:34.948Z,20.85
2023-02-13T18:38:36.534Z,18.67
2023-02-13T18:40:38.139Z,17.63
2023-02-13T18:42:39.787Z,17.48
2023-02-13T18:44:41.788Z,18.13
2023-02-13T18:46:43.681Z,16.48
2023-02-13T18:48:45.261Z,17.23
2023-02-13T18:50:46.841Z,16.45
2023-02-13T18:52:48.498Z,16.63
2023-02-13T18:54:50.279Z,16.50
2023-02-13T18:56:52.173Z,15.85
2023-02-13T18:58:53.894Z,17.00
2023-02-13T19:00:55.806Z,16.65
2023-02-13T19:02:59.011Z,15.20
2023-02-13T19:05:01.288Z,16.00
2023-02-13T19:07:02.927Z,15.45
2023-02-13T19:09:04.591Z,15.25
2023-02-13T19:11:08.292Z,15.18
2023-02-13T19:13:09.894Z,15.55
2023-02-13T19:15:11.592Z,16.55
2023-02-13T19:17:13.210Z,15.73
2023-02-13T19:19:14.826Z,16.05
2023-02-13T19:21:16.648Z,16.20
2023-02-13T19:23:18.252Z,15.82
2023-02-13T19:25:20.074Z,16.55
2023-02-13T19:27:21.669Z,16.48
2023-02-13T19:29:23.408Z,16.88
2023-02-13T19:31:30.703Z,16.20
2023-02-13T19:33:32.738Z,16.30
2023-02-13T19:35:34.388Z,16.15
2023-02-13T19:37:43.875Z,16.10
2023-02-13T19:39:46.086Z,15.55
2023-02-13T19:41:47.713Z,15.85
2023-02-13T19:43:56.077Z,15.93
2023-02-13T19:45:57.696Z,14.90
2023-02-13T19:47:59.353Z,15.98
2023-02-13T19:50:00.903Z,15.80
2023-02-13T19:52:03.696Z,15.45
2023-02-13T19:54:07.182Z,16.08
2023-02-13T19:56:09.527Z,16.85
2023-02-13T19:58:11.138Z,16.23
2023-02-13T20:00:13.391Z,15.55
2023-02-13T20:02:15.544Z,15.88
2023-02-13T20:04:17.191Z,14.52
2023-02-13T20:06:24.926Z,15.52
2023-02-13T20:08:26.513Z,14.63
2023-02-13T20:10:28.075Z,14.82
2023-02-13T20:12:29.717Z,13.90
2023-02-13T20:14:31.285Z,15.38
2023-02-13T20:16:35.464Z,14.73
2023-02-13T20:18:37.886Z,13.75
2023-02-13T20:20:39.925Z,13.23
2023-02-13T20:22:41.539Z,13.85
2023-02-13T20:24:43.527Z,13.43
2023-02-13T20:26:45.146Z,13.27
2023-02-13T20:28:48.107Z,14.80
2023-02-13T20:30:49.935Z,13.97
2023-02-13T20:32:51.550Z,12.60
2023-02-13T20:34:59.877Z,13.50
2023-02-13T20:37:01.877Z,13.77
2023-02-13T20:39:06.135Z,12.90
2023-02-13T20:41:12.103Z,12.73
2023-02-13T20:43:13.700Z,13.40
2023-02-13T20:45:15.451Z,12.65
2023-02-13T20:47:17.180Z,13.80
2023-02-13T20:49:21.919Z,13.98
2023-02-13T20:51:23.678Z,13.88
2023-02-13T20:53:25.704Z,14.02
2023-02-13T20:55:27.280Z,13.80
2023-02-13T20:57:28.903Z,14.32
2023-02-13T20:59:30.552Z,14.85
2023-02-13T21:01:35.638Z,12.98
2023-02-13T21:03:37.296Z,14.02
2023-02-13T21:05:38.910Z,13.30
2023-02-13T21:07:40.660Z,14.13
2023-02-13T21:09:42.315Z,15.38
2023-02-13T21:11:44.724Z,12.80
2023-02-13T21:13:46.816Z,13.60
2023-02-13T21:15:50.602Z,14.00
2023-02-13T21:17:52.276Z,14.23
2023-02-13T21:19:53.872Z,13.68
2023-02-13T21:21:55.434Z,13.95
2023-02-13T21:23:59.570Z,14.30
2023-02-13T21:26:05.621Z,13.23
2023-02-13T21:28:07.353Z,14.10
2023-02-13T21:30:09.524Z,14.13
2023-02-13T21:32:11.281Z,15.10
2023-02-13T21:34:13.834Z,14.18
2023-02-13T21:36:15.730Z,14.52
2023-02-13T21:38:19.411Z,14.32
2023-02-13T21:40:21.259Z,13.65
2023-02-13T21:42:22.879Z,14.38
2023-02-13T21:44:24.683Z,13.32
2023-02-13T21:46:28.896Z,14.43
2023-02-13T21:48:30.460Z,14.20
2023-02-13T21:50:32.553Z,14.65
2023-02-13T21:52:35.284Z,14.38
2023-02-13T21:54:37.100Z,14.98
2023-02-13T21:56:40.416Z,14.23
2023-02-13T21:58:43.105Z,15.10
2023-02-13T22:00:44.714Z,15.20
2023-02-13T22:02:46.259Z,14.60
2023-02-13T22:04:47.833Z,14.18
2023-02-13T22:06:51.416Z,14.45
2023-02-13T22:09:01.510Z,15.02
2023-02-13T22:11:03.197Z,13.82
2023-02-13T22:13:04.896Z,14.43
2023-02-13T22:15:06.708Z,13.90
2023-02-13T22:17:08.584Z,13.80
2023-02-13T22:19:13.624Z,14.45
2023-02-13T22:21:18.556Z,15.23
2023-02-13T22:23:20.408Z,14.35
2023-02-13T22:25:22.174Z,14.52
2023-02-13T22:27:23.816Z,14.32
2023-02-13T22:29:27.054Z,14.95
2023-02-13T22:31:28.815Z,12.88
2023-02-13T22:33:30.427Z,14.38
2023-02-13T22:35:32.050Z,13.70
2023-02-13T22:37:34.205Z,14.82
2023-02-13T22:39:35.826Z,14.23
2023-02-13T22:41:37.909Z,14.10
2023-02-13T22:43:39.633Z,15.60
2023-02-13T22:45:41.278Z,15.07
2023-02-13T22:47:42.901Z,14.20
2023-02-13T22:49:44.500Z,15.35
2023-02-13T22:51:46.096Z,14.95
2023-02-13T22:53:48.561Z,15.57
2023-02-13T22:55:50.280Z,14.63
2023-02-13T22:57:54.429Z,15.95
2023-02-13T22:59:56.345Z,15.13
2023-02-13T23:01:57.919Z,15.68
2023-02-13T23:04:00.029Z,14.68
2023-02-13T23:06:04.014Z,14.38
2023-02-13T23:10:07.724Z,14.88
2023-02-13T23:12:27.754Z,14.35
2023-02-13T23:14:29.381Z,14.75
2023-02-13T23:16:54.040Z,15.13
2023-02-13T23:21:04.571Z,15.52
2023-02-13T23:23:06.184Z,14.40
2023-02-13T23:25:07.948Z,14.07
2023-02-13T23:27:09.591Z,14.02
2023-02-13T23:29:11.272Z,15.70
2023-02-13T23:31:12.923Z,15.40
2023-02-13T23:33:14.611Z,14.93
2023-02-13T23:35:16.806Z,14.15
2023-02-13T23:37:18.383Z,15.73
2023-02-13T23:39:21.094Z,14.75
2023-02-13T23:41:22.888Z,13.73
2023-02-13T23:43:24.546Z,14.57
2023-02-13T23:45:26.095Z,13.75
2023-02-13T23:47:27.772Z,14.73
2023-02-13T23:49:29.427Z,14.70
2023-02-13T23:51:31.018Z,14.88
2023-02-13T23:53:35.673Z,15.07
2023-02-13T23:55:37.290Z,14.77
2023-02-13T23:57:38.935Z,14.13
2023-02-13T23:59:40.759Z,14.68
